Terminal Aerodrome Forecast
Issued by NWS Sterling, VA

Current Version | Previous Version | Graphics & Text | Print | Product List | Glossary On
Versions: 1 2 3 4 5 6 7 8 9 10 11 12 13 14 15 16 17 18 19 20 21 22 23 24 25 26 27 28 29 30
349
FTUS41 KLWX 151742
TAFIAD
TAF
KIAD 151742Z 1518/1624 VRB03KT 5SM BR OVC010
     FM152000 VRB03KT P6SM VCSH BKN030
     FM152200 VRB03KT P6SM BKN050
     FM160800 VRB03KT 4SM BR BKN020
     FM161200 34005KT P6SM SCT150=

USA.gov is the U.S. government's official web portal to all federal, state and local government web resources and services.